createdAt,value
2023-03-12T00:00:03.168Z,0.00
2023-03-12T00:00:34.506Z,0.00
2023-03-12T00:01:06.915Z,0.00
2023-03-12T00:01:37.861Z,0.00
2023-03-12T00:02:11.276Z,0.00
2023-03-12T00:02:41.985Z,0.00
2023-03-12T00:03:14.750Z,0.00
2023-03-12T00:03:46.179Z,0.00
2023-03-12T00:04:18.705Z,0.00
2023-03-12T00:04:49.797Z,0.00
2023-03-12T00:05:22.740Z,0.00
2023-03-12T00:05:53.653Z,0.00
2023-03-12T00:06:26.623Z,0.00
2023-03-12T00:06:57.731Z,0.00
2023-03-12T00:07:30.623Z,0.00
2023-03-12T00:08:01.629Z,0.00
2023-03-12T00:08:34.634Z,0.00
2023-03-12T00:09:05.702Z,0.00
2023-03-12T00:09:38.549Z,0.00
2023-03-12T00:10:09.518Z,0.00
2023-03-12T00:10:42.430Z,0.00
2023-03-12T00:11:13.550Z,0.00
2023-03-12T00:11:46.263Z,0.00
2023-03-12T00:12:17.408Z,0.00
2023-03-12T00:12:50.438Z,0.00
2023-03-12T00:13:21.865Z,0.00
2023-03-12T00:13:54.184Z,0.00
2023-03-12T00:14:25.305Z,0.00
2023-03-12T00:14:58.530Z,0.00
2023-03-12T00:15:29.528Z,0.00
2023-03-12T00:16:02.446Z,0.00
2023-03-12T00:16:33.222Z,0.00
2023-03-12T00:17:06.222Z,0.00
2023-03-12T00:17:37.301Z,0.00
2023-03-12T00:18:10.174Z,0.00
2023-03-12T00:18:41.204Z,0.00
2023-03-12T00:19:14.053Z,0.00
2023-03-12T00:19:45.213Z,0.00
2023-03-12T00:20:18.190Z,0.00
2023-03-12T00:20:49.027Z,0.00
2023-03-12T00:21:22.033Z,0.00
2023-03-12T00:21:53.193Z,0.00
2023-03-12T00:22:26.068Z,0.00
2023-03-12T00:22:57.243Z,0.00
2023-03-12T00:23:30.009Z,0.00
2023-03-12T00:24:01.169Z,0.00
2023-03-12T00:24:33.928Z,0.00
2023-03-12T00:25:04.864Z,0.00
2023-03-12T00:25:37.757Z,0.00
2023-03-12T00:26:08.913Z,0.00
2023-03-12T00:26:41.844Z,0.00
2023-03-12T00:27:12.741Z,0.00
2023-03-12T00:27:45.693Z,0.00
2023-03-12T00:28:16.831Z,0.00
2023-03-12T00:28:49.783Z,0.00
2023-03-12T00:29:20.823Z,0.00
2023-03-12T00:29:53.586Z,0.00
2023-03-12T00:30:25.108Z,0.00
2023-03-12T00:30:57.748Z,0.00
2023-03-12T00:31:28.625Z,0.00
2023-03-12T00:32:01.578Z,0.00
2023-03-12T00:32:32.765Z,0.00
2023-03-12T00:33:05.653Z,0.00
2023-03-12T00:33:36.536Z,0.00
2023-03-12T00:34:09.423Z,0.00
2023-03-12T00:34:40.740Z,0.00
2023-03-12T00:35:13.480Z,0.00
2023-03-12T00:35:44.453Z,0.00
2023-03-12T00:36:17.325Z,0.00
2023-03-12T00:36:48.475Z,0.00
2023-03-12T00:37:21.375Z,0.00
2023-03-12T00:37:52.343Z,0.00
2023-03-12T00:38:25.322Z,0.00
2023-03-12T00:38:56.509Z,0.00
2023-03-12T00:39:29.366Z,0.00
2023-03-12T00:40:00.470Z,0.00
2023-03-12T00:40:33.195Z,0.00
2023-03-12T00:41:04.290Z,0.00
2023-03-12T00:41:37.192Z,0.00
2023-03-12T00:42:08.129Z,0.00
2023-03-12T00:42:41.260Z,0.00
2023-03-12T00:43:12.228Z,0.00
2023-03-12T00:43:45.203Z,0.00
2023-03-12T00:44:16.016Z,0.00
2023-03-12T00:44:48.869Z,0.00
2023-03-12T00:45:20.279Z,0.00
2023-03-12T00:45:53.060Z,0.00
2023-03-12T00:46:24.030Z,0.00
2023-03-12T00:46:56.927Z,0.00
2023-03-12T00:47:28.023Z,0.00
2023-03-12T00:48:01.046Z,0.00
2023-03-12T00:48:31.909Z,0.00
2023-03-12T00:49:04.765Z,0.00
2023-03-12T00:49:35.891Z,0.00
2023-03-12T00:50:08.837Z,0.00
2023-03-12T00:50:39.774Z,0.00
2023-03-12T00:51:12.779Z,0.00
2023-03-12T00:51:43.789Z,0.00
2023-03-12T00:52:16.725Z,0.00
2023-03-12T00:52:47.656Z,0.00
2023-03-12T00:53:20.785Z,0.00
2023-03-12T00:53:51.753Z,0.00
2023-03-12T00:54:24.689Z,0.00
2023-03-12T00:54:55.554Z,0.00
2023-03-12T00:55:28.535Z,0.00
2023-03-12T00:55:59.685Z,0.00
2023-03-12T00:56:32.614Z,0.00
2023-03-12T00:57:03.478Z,0.00
2023-03-12T00:57:36.430Z,0.00
2023-03-12T00:58:07.578Z,0.00
2023-03-12T00:58:40.707Z,0.00
2023-03-12T00:59:11.419Z,0.00
2023-03-12T00:59:44.340Z,0.00
2023-03-12T01:00:15.899Z,0.00
2023-03-12T01:00:48.453Z,0.00
2023-03-12T01:01:19.357Z,0.00
2023-03-12T01:01:52.320Z,0.00
2023-03-12T01:02:23.387Z,0.00
2023-03-12T01:02:56.299Z,0.00
2023-03-12T01:03:27.257Z,0.00
2023-03-12T01:04:00.309Z,0.00
2023-03-12T01:04:31.363Z,0.00
2023-03-12T01:05:04.210Z,0.00
2023-03-12T01:05:35.419Z,0.00
2023-03-12T01:06:08.166Z,0.00
2023-03-12T01:06:39.199Z,0.00
2023-03-12T01:07:12.148Z,0.00
2023-03-12T01:07:43.060Z,0.00
2023-03-12T01:08:16.064Z,0.00
2023-03-12T01:08:47.072Z,0.00
2023-03-12T01:09:20.027Z,0.00
2023-03-12T01:09:51.019Z,0.00
2023-03-12T01:10:23.880Z,0.00
2023-03-12T01:10:55.294Z,0.00
2023-03-12T01:11:27.853Z,0.00
2023-03-12T01:11:58.916Z,0.00
2023-03-12T01:12:31.776Z,0.00
2023-03-12T01:13:03.056Z,0.00
2023-03-12T01:13:35.829Z,0.00
2023-03-12T01:14:06.747Z,0.00
2023-03-12T01:14:39.680Z,0.00
2023-03-12T01:15:11.153Z,0.00
2023-03-12T01:15:43.994Z,0.00
2023-03-12T01:16:14.696Z,0.00
2023-03-12T01:16:47.737Z,0.00
2023-03-12T01:17:18.767Z,0.00
2023-03-12T01:17:51.673Z,0.00
2023-03-12T01:18:22.611Z,0.00
2023-03-12T01:18:55.611Z,0.00
2023-03-12T01:19:26.666Z,0.00
2023-03-12T01:19:59.677Z,0.00
2023-03-12T01:20:30.559Z,0.00
2023-03-12T01:21:03.513Z,0.00
2023-03-12T01:21:34.563Z,0.00
2023-03-12T01:22:08.098Z,0.00
2023-03-12T01:22:38.517Z,0.00
2023-03-12T01:23:11.399Z,0.00
2023-03-12T01:23:42.687Z,0.00
2023-03-12T01:24:15.421Z,0.00
2023-03-12T01:24:46.411Z,0.00
2023-03-12T01:25:19.277Z,0.00
2023-03-12T01:25:50.463Z,0.00
2023-03-12T01:26:23.298Z,0.00
2023-03-12T01:26:54.258Z,0.00
2023-03-12T01:27:27.198Z,0.00
2023-03-12T01:27:58.321Z,0.00
2023-03-12T01:28:31.313Z,0.00
2023-03-12T01:29:02.154Z,0.00
2023-03-12T01:29:35.052Z,0.00
2023-03-12T01:30:06.517Z,0.00
2023-03-12T01:30:39.124Z,0.00
2023-03-12T01:31:10.156Z,0.00
2023-03-12T01:31:42.998Z,0.00
2023-03-12T01:32:14.196Z,0.00
2023-03-12T01:32:47.124Z,0.00
2023-03-12T01:33:17.946Z,0.00
2023-03-12T01:33:51.074Z,0.00
2023-03-12T01:34:22.004Z,0.00
2023-03-12T01:34:54.914Z,0.00
2023-03-12T01:35:26.017Z,0.00
2023-03-12T01:35:58.943Z,0.00
2023-03-12T01:36:29.936Z,0.00
2023-03-12T01:37:03.152Z,0.00
2023-03-12T01:37:34.368Z,0.00
2023-03-12T01:38:06.839Z,0.00
2023-03-12T01:38:37.809Z,0.00
2023-03-12T01:39:10.747Z,0.00
2023-03-12T01:39:41.693Z,0.00
2023-03-12T01:40:14.724Z,0.00
2023-03-12T01:40:45.746Z,0.00
2023-03-12T01:41:18.606Z,0.00
2023-03-12T01:41:49.582Z,0.00
2023-03-12T01:42:22.514Z,0.00
2023-03-12T01:42:53.661Z,0.00
2023-03-12T01:43:26.616Z,0.00
2023-03-12T01:43:57.731Z,0.00
2023-03-12T01:44:30.481Z,0.00
2023-03-12T01:45:01.830Z,0.00
2023-03-12T01:45:34.513Z,0.00
2023-03-12T01:46:05.546Z,0.00
2023-03-12T01:46:38.390Z,0.00
2023-03-12T01:47:09.467Z,0.00
2023-03-12T01:47:42.724Z,0.00
2023-03-12T01:48:13.355Z,0.00
2023-03-12T01:48:46.576Z,0.00
2023-03-12T01:49:17.383Z,0.00
2023-03-12T01:49:50.413Z,0.00
2023-03-12T01:50:21.282Z,0.00
2023-03-12T01:50:54.171Z,0.00
2023-03-12T01:51:25.351Z,0.00
2023-03-12T01:51:58.282Z,0.00
2023-03-12T01:52:29.152Z,0.00
2023-03-12T01:53:02.125Z,0.00
2023-03-12T01:53:33.303Z,0.00
2023-03-12T01:54:06.133Z,0.00
2023-03-12T01:54:37.114Z,0.00
2023-03-12T01:55:09.988Z,0.00
2023-03-12T01:55:41.138Z,0.00
2023-03-12T01:56:14.024Z,0.00
2023-03-12T01:56:44.948Z,0.00
2023-03-12T01:57:17.884Z,0.00
2023-03-12T01:57:49.031Z,0.00
2023-03-12T01:58:22.063Z,0.00
2023-03-12T01:58:52.875Z,0.00
2023-03-12T01:59:25.866Z,0.00
2023-03-12T01:59:57.039Z,0.00
2023-03-12T02:00:30.083Z,0.00
2023-03-12T02:01:01.001Z,0.00
2023-03-12T02:01:33.764Z,0.00
2023-03-12T02:02:04.834Z,0.00
2023-03-12T02:02:37.981Z,0.00
2023-03-12T02:03:08.708Z,0.00
2023-03-12T02:03:41.749Z,0.00
2023-03-12T02:04:12.789Z,0.00
2023-03-12T02:04:45.698Z,0.00
2023-03-12T02:05:16.586Z,0.00
2023-03-12T02:05:49.542Z,0.00
2023-03-12T02:06:20.736Z,0.00
2023-03-12T02:06:53.737Z,0.00
2023-03-12T02:07:24.577Z,0.00
2023-03-12T02:07:57.472Z,0.00
2023-03-12T02:08:28.548Z,0.00
2023-03-12T02:09:01.589Z,0.00
2023-03-12T02:09:32.638Z,0.00
2023-03-12T02:10:05.270Z,0.00
2023-03-12T02:10:36.492Z,0.00
2023-03-12T02:11:09.897Z,0.00
2023-03-12T02:11:40.571Z,0.00
2023-03-12T02:12:13.283Z,0.00
2023-03-12T02:12:44.384Z,0.00
2023-03-12T02:13:17.439Z,0.00
2023-03-12T02:13:48.410Z,0.00
2023-03-12T02:14:21.243Z,0.00
2023-03-12T02:14:52.347Z,0.00
2023-03-12T02:15:25.471Z,0.00
2023-03-12T02:15:56.363Z,0.00
2023-03-12T02:16:29.108Z,0.00
2023-03-12T02:17:00.212Z,0.00
2023-03-12T02:17:33.106Z,0.00
2023-03-12T02:18:04.242Z,0.00
2023-03-12T02:18:37.048Z,0.00
2023-03-12T02:19:08.076Z,0.00
2023-03-12T02:19:41.172Z,0.00
2023-03-12T02:20:12.201Z,0.00
2023-03-12T02:20:44.862Z,0.00
2023-03-12T02:21:15.996Z,0.00
2023-03-12T02:21:48.925Z,0.00
2023-03-12T02:22:20.062Z,0.00
2023-03-12T02:22:52.836Z,0.00
2023-03-12T02:23:23.923Z,0.00
2023-03-12T02:23:56.956Z,0.00
2023-03-12T02:24:27.916Z,0.00
2023-03-12T02:25:01.053Z,0.00
2023-03-12T02:25:31.783Z,0.00
2023-03-12T02:26:04.734Z,0.00
2023-03-12T02:26:35.852Z,0.00
2023-03-12T02:27:08.577Z,0.00
2023-03-12T02:27:39.710Z,0.00
2023-03-12T02:28:12.754Z,0.00
2023-03-12T02:28:43.761Z,0.00
2023-03-12T02:29:16.485Z,0.00
2023-03-12T02:29:47.614Z,0.00
2023-03-12T02:30:20.779Z,0.00
2023-03-12T02:30:51.696Z,0.00
2023-03-12T02:31:24.505Z,0.00
2023-03-12T02:31:55.707Z,0.00
2023-03-12T02:32:28.518Z,0.00
2023-03-12T02:32:59.680Z,0.00
2023-03-12T02:33:32.353Z,0.00
2023-03-12T02:34:03.442Z,0.00
2023-03-12T02:34:36.406Z,0.00
2023-03-12T02:35:07.540Z,0.00
2023-03-12T02:35:40.806Z,0.00
2023-03-12T02:36:11.385Z,0.00
2023-03-12T02:36:44.381Z,0.00
2023-03-12T02:37:15.402Z,0.00
2023-03-12T02:37:48.133Z,0.00
2023-03-12T02:38:19.299Z,0.00
2023-03-12T02:38:52.214Z,0.00
2023-03-12T02:39:23.328Z,0.00
2023-03-12T02:39:56.265Z,0.00
2023-03-12T02:40:27.141Z,0.00
2023-03-12T02:41:00.123Z,0.00
2023-03-12T02:41:31.244Z,0.00
2023-03-12T02:42:04.130Z,0.00
2023-03-12T02:42:35.071Z,0.00
2023-03-12T02:43:08.101Z,0.00
2023-03-12T02:43:39.158Z,0.00
2023-03-12T02:44:12.081Z,0.00
2023-03-12T02:44:42.977Z,0.00
2023-03-12T02:45:16.179Z,0.00
2023-03-12T02:45:47.095Z,0.00
2023-03-12T02:46:20.137Z,0.00
2023-03-12T02:46:51.040Z,0.00
2023-03-12T02:47:25.218Z,0.00
2023-03-12T02:47:54.959Z,0.00
2023-03-12T02:48:27.862Z,0.00
2023-03-12T02:48:58.832Z,0.00
2023-03-12T02:49:32.733Z,0.00
2023-03-12T02:50:02.914Z,0.00
2023-03-12T02:50:35.826Z,0.00
2023-03-12T02:51:06.763Z,0.00
2023-03-12T02:51:39.628Z,0.00
2023-03-12T02:52:10.862Z,0.00
2023-03-12T02:52:43.679Z,0.00
2023-03-12T02:53:14.578Z,0.00
2023-03-12T02:53:47.610Z,0.00
2023-03-12T02:54:18.638Z,0.00
2023-03-12T02:54:51.553Z,0.00
2023-03-12T02:55:22.521Z,0.00
2023-03-12T02:55:55.452Z,0.00
2023-03-12T02:56:26.611Z,0.00
2023-03-12T02:56:59.508Z,0.00
2023-03-12T02:57:30.542Z,0.00
2023-03-12T02:58:03.462Z,0.00
2023-03-12T02:58:35.081Z,0.00
2023-03-12T02:59:07.395Z,0.00
2023-03-12T02:59:38.326Z,0.00
2023-03-12T03:00:11.761Z,0.00
2023-03-12T03:00:42.418Z,0.00
2023-03-12T03:01:15.260Z,0.00
2023-03-12T03:01:46.463Z,0.00
2023-03-12T03:02:19.182Z,0.00
2023-03-12T03:02:50.404Z,0.00
2023-03-12T03:03:23.256Z,0.00
2023-03-12T03:03:54.269Z,0.00
2023-03-12T03:04:28.317Z,0.00
2023-03-12T03:04:58.166Z,0.00
2023-03-12T03:05:31.185Z,0.00
2023-03-12T03:06:02.300Z,0.00
2023-03-12T03:06:34.972Z,0.00
2023-03-12T03:07:06.102Z,0.00
2023-03-12T03:07:39.031Z,0.00
2023-03-12T03:08:09.969Z,0.00
2023-03-12T03:08:42.881Z,0.00
2023-03-12T03:09:14.012Z,0.00
2023-03-12T03:09:47.023Z,0.00
2023-03-12T03:10:18.062Z,0.00
2023-03-12T03:10:50.956Z,0.00
2023-03-12T03:11:21.956Z,0.00
2023-03-12T03:11:54.965Z,0.00
2023-03-12T03:12:25.983Z,0.00
2023-03-12T03:12:59.821Z,0.00
2023-03-12T03:13:29.855Z,0.00
2023-03-12T03:14:02.941Z,0.00
2023-03-12T03:14:33.917Z,0.00
2023-03-12T03:15:07.157Z,0.00
2023-03-12T03:15:37.781Z,0.00
2023-03-12T03:16:11.026Z,0.00
2023-03-12T03:16:41.775Z,0.00
2023-03-12T03:17:14.805Z,0.00
2023-03-12T03:17:45.670Z,0.00
2023-03-12T03:18:18.762Z,0.00
2023-03-12T03:18:49.671Z,0.00
2023-03-12T03:19:22.445Z,0.00
2023-03-12T03:19:53.574Z,0.00
2023-03-12T03:20:26.575Z,0.00
2023-03-12T03:20:57.598Z,0.00
2023-03-12T03:21:30.379Z,0.00
2023-03-12T03:22:01.477Z,0.00
2023-03-12T03:22:34.381Z,0.00
2023-03-12T03:23:05.530Z,0.00
2023-03-12T03:23:38.310Z,0.00
2023-03-12T03:24:09.369Z,0.00
2023-03-12T03:24:42.295Z,0.00
2023-03-12T03:25:13.442Z,0.00
2023-03-12T03:25:46.128Z,0.00
2023-03-12T03:26:17.248Z,0.00
2023-03-12T03:26:50.192Z,0.00
2023-03-12T03:27:21.345Z,0.00
2023-03-12T03:27:54.329Z,0.00
2023-03-12T03:28:25.178Z,0.00
2023-03-12T03:28:58.090Z,0.00
2023-03-12T03:29:29.214Z,0.00
2023-03-12T03:30:02.122Z,0.00
2023-03-12T03:30:33.082Z,0.00
2023-03-12T03:31:06.053Z,0.00
2023-03-12T03:31:37.133Z,0.00
2023-03-12T03:32:09.884Z,0.00
2023-03-12T03:32:41.092Z,0.00
2023-03-12T03:33:13.911Z,0.00
2023-03-12T03:33:45.553Z,0.00
2023-03-12T03:34:17.677Z,0.00
2023-03-12T03:34:48.895Z,0.00
2023-03-12T03:35:21.849Z,0.00
2023-03-12T03:35:53.006Z,0.00
2023-03-12T03:36:25.809Z,0.00
2023-03-12T03:36:56.816Z,0.00
2023-03-12T03:37:29.749Z,0.00
2023-03-12T03:38:00.979Z,0.00
2023-03-12T03:38:33.594Z,0.00
2023-03-12T03:39:04.727Z,0.00
2023-03-12T03:39:37.833Z,0.00
2023-03-12T03:40:09.387Z,0.00
2023-03-12T03:40:41.682Z,0.00
2023-03-12T03:41:12.655Z,0.00
2023-03-12T03:41:45.776Z,0.00
2023-03-12T03:42:16.693Z,0.00
2023-03-12T03:42:50.587Z,0.00
2023-03-12T03:43:20.778Z,0.00
2023-03-12T03:43:53.608Z,0.00
2023-03-12T03:44:24.665Z,0.00
2023-03-12T03:44:57.316Z,0.00
2023-03-12T03:45:28.580Z,0.00
2023-03-12T03:46:01.394Z,0.00
2023-03-12T03:46:32.633Z,0.00
2023-03-12T03:47:05.237Z,0.00
2023-03-12T03:47:36.543Z,0.00
2023-03-12T03:48:09.397Z,0.00
2023-03-12T03:48:40.506Z,0.00
2023-03-12T03:49:13.132Z,0.00
2023-03-12T03:49:44.277Z,0.00
2023-03-12T03:50:18.195Z,0.00
2023-03-12T03:50:48.328Z,0.00
2023-03-12T03:51:21.115Z,0.00
2023-03-12T03:51:52.301Z,0.00
2023-03-12T03:52:25.156Z,0.00
2023-03-12T03:52:56.225Z,0.00
2023-03-12T03:53:29.073Z,0.00
2023-03-12T03:54:00.145Z,0.00
2023-03-12T03:54:33.008Z,0.00
2023-03-12T03:55:04.349Z,0.00
2023-03-12T03:55:37.261Z,0.00
2023-03-12T03:56:08.166Z,0.00
2023-03-12T03:56:40.972Z,0.00
2023-03-12T03:57:12.066Z,0.00
2023-03-12T03:57:44.792Z,0.00
2023-03-12T03:58:15.923Z,0.00
2023-03-12T03:58:48.947Z,0.00
2023-03-12T03:59:19.991Z,0.00
2023-03-12T03:59:52.714Z,0.00
2023-03-12T04:00:24.095Z,0.00
2023-03-12T04:00:56.847Z,0.00
2023-03-12T04:01:27.866Z,0.00
2023-03-12T04:02:01.505Z,0.00
2023-03-12T04:02:31.778Z,0.00
2023-03-12T04:03:04.731Z,0.00
2023-03-12T04:03:35.843Z,0.00
2023-03-12T04:04:08.809Z,0.00
2023-03-12T04:04:39.643Z,0.00
2023-03-12T04:05:12.606Z,0.00
2023-03-12T04:05:43.707Z,0.00
2023-03-12T04:06:16.708Z,0.00
2023-03-12T04:06:47.536Z,0.00
2023-03-12T04:07:20.564Z,0.00
2023-03-12T04:07:51.620Z,0.00
2023-03-12T04:08:24.606Z,0.00
2023-03-12T04:08:55.440Z,0.00
2023-03-12T04:09:28.374Z,0.00
2023-03-12T04:09:59.567Z,0.00
2023-03-12T04:10:32.481Z,0.00
2023-03-12T04:11:03.365Z,0.00
2023-03-12T04:11:36.378Z,0.00
2023-03-12T04:12:07.406Z,0.00
2023-03-12T04:12:40.533Z,0.00
2023-03-12T04:13:11.270Z,0.00
2023-03-12T04:13:44.583Z,0.00
2023-03-12T04:14:15.306Z,0.00
2023-03-12T04:14:48.108Z,0.00
2023-03-12T04:15:19.324Z,0.00
2023-03-12T04:15:52.254Z,0.00
2023-03-12T04:16:23.419Z,0.00
2023-03-12T04:16:56.132Z,0.00
2023-03-12T04:17:27.085Z,0.00
2023-03-12T04:18:00.106Z,0.00
2023-03-12T04:18:31.235Z,0.00
2023-03-12T04:19:04.039Z,0.00
2023-03-12T04:19:34.959Z,0.00
2023-03-12T04:20:07.914Z,0.00
2023-03-12T04:20:39.013Z,0.00
2023-03-12T04:21:11.982Z,0.00
2023-03-12T04:21:42.907Z,0.00
2023-03-12T04:22:15.892Z,0.00
2023-03-12T04:22:46.921Z,0.00
2023-03-12T04:23:19.898Z,0.00
2023-03-12T04:23:50.900Z,0.00
2023-03-12T04:24:23.727Z,0.00
2023-03-12T04:24:54.844Z,0.00
2023-03-12T04:25:27.775Z,0.00
2023-03-12T04:25:58.904Z,0.00
2023-03-12T04:26:31.704Z,0.00
2023-03-12T04:27:02.731Z,0.00
2023-03-12T04:27:35.724Z,0.00
2023-03-12T04:28:06.606Z,0.00
2023-03-12T04:28:39.653Z,0.00
2023-03-12T04:29:10.846Z,0.00
2023-03-12T04:29:43.678Z,0.00
2023-03-12T04:30:14.663Z,0.00
2023-03-12T04:30:47.444Z,0.00
2023-03-12T04:31:18.842Z,0.00
2023-03-12T04:31:51.633Z,0.00
2023-03-12T04:32:22.530Z,0.00
2023-03-12T04:32:55.407Z,0.00
2023-03-12T04:33:26.514Z,0.00
2023-03-12T04:33:59.518Z,0.00
2023-03-12T04:34:30.768Z,0.00
2023-03-12T04:35:03.391Z,0.00
2023-03-12T04:35:34.906Z,0.00
2023-03-12T04:36:07.465Z,0.00
2023-03-12T04:36:38.225Z,0.00
2023-03-12T04:37:11.191Z,0.00
2023-03-12T04:37:42.334Z,0.00
2023-03-12T04:38:15.202Z,0.00
2023-03-12T04:38:46.338Z,0.00
2023-03-12T04:39:20.263Z,0.00
2023-03-12T04:39:50.585Z,0.00
2023-03-12T04:40:23.131Z,0.00
2023-03-12T04:40:54.241Z,0.00
2023-03-12T04:41:26.899Z,0.00
2023-03-12T04:41:58.105Z,0.00
2023-03-12T04:42:31.089Z,0.00
2023-03-12T04:43:02.197Z,0.00
2023-03-12T04:43:34.987Z,0.00
2023-03-12T04:44:06.007Z,0.00
2023-03-12T04:44:38.925Z,0.00
2023-03-12T04:45:10.244Z,0.00
2023-03-12T04:45:42.808Z,0.00
2023-03-12T04:46:14.047Z,0.00
2023-03-12T04:46:46.881Z,0.00
2023-03-12T04:47:18.016Z,0.00
2023-03-12T04:47:50.855Z,0.00
2023-03-12T04:48:21.831Z,0.00
2023-03-12T04:48:54.845Z,0.00
2023-03-12T04:49:25.915Z,0.00
2023-03-12T04:49:58.587Z,0.00
2023-03-12T04:50:29.770Z,0.00
2023-03-12T04:51:03.530Z,0.00
2023-03-12T04:51:33.806Z,0.00
2023-03-12T04:52:06.522Z,0.00
2023-03-12T04:52:37.694Z,0.00
2023-03-12T04:53:10.840Z,0.00
2023-03-12T04:53:41.767Z,0.00
2023-03-12T04:54:14.431Z,0.00
2023-03-12T04:54:47.967Z,0.00
2023-03-12T04:55:18.512Z,0.00
2023-03-12T04:55:49.643Z,0.00
2023-03-12T04:56:22.336Z,0.00
2023-03-12T04:56:53.490Z,0.00
2023-03-12T04:57:26.387Z,0.00
2023-03-12T04:57:57.583Z,0.00
2023-03-12T04:58:31.348Z,0.00
2023-03-12T04:59:01.366Z,0.00
2023-03-12T04:59:34.704Z,0.00
2023-03-12T05:00:05.780Z,0.00
2023-03-12T05:00:38.163Z,0.00
2023-03-12T05:01:09.325Z,0.00
2023-03-12T05:01:42.258Z,0.00
2023-03-12T05:02:13.415Z,0.00
2023-03-12T05:02:46.184Z,0.00
2023-03-12T05:03:17.291Z,0.00
2023-03-12T05:03:50.218Z,0.00
2023-03-12T05:04:21.401Z,0.00
2023-03-12T05:04:53.944Z,0.00
2023-03-12T05:05:25.092Z,0.00
2023-03-12T05:05:58.001Z,0.00
2023-03-12T05:06:29.157Z,0.00
2023-03-12T05:07:02.002Z,0.00
2023-03-12T05:07:33.019Z,0.00
2023-03-12T05:08:06.034Z,0.01
2023-03-12T05:08:37.071Z,0.01
2023-03-12T05:09:09.962Z,0.01
2023-03-12T05:09:40.950Z,0.01
2023-03-12T05:10:13.846Z,0.01
2023-03-12T05:10:44.952Z,0.01
2023-03-12T05:11:17.712Z,0.02
2023-03-12T05:11:48.856Z,0.02
2023-03-12T05:12:21.731Z,0.02
2023-03-12T05:12:52.873Z,0.02
2023-03-12T05:13:25.806Z,0.02
2023-03-12T05:13:57.315Z,0.02
2023-03-12T05:14:29.742Z,0.03
2023-03-12T05:15:01.111Z,0.03
2023-03-12T05:15:33.717Z,0.03
2023-03-12T05:16:04.685Z,0.04
2023-03-12T05:16:37.628Z,0.05
2023-03-12T05:17:08.673Z,0.05
2023-03-12T05:17:41.633Z,0.06
2023-03-12T05:18:12.629Z,0.06
2023-03-12T05:18:45.582Z,0.06
2023-03-12T05:19:16.605Z,0.07
2023-03-12T05:19:49.550Z,0.08
2023-03-12T05:20:20.615Z,0.09
2023-03-12T05:20:53.381Z,0.09
2023-03-12T05:21:24.501Z,0.11
2023-03-12T05:21:57.427Z,0.12
2023-03-12T05:22:28.452Z,0.12
2023-03-12T05:23:01.425Z,0.14
2023-03-12T05:23:32.699Z,0.16
2023-03-12T05:24:05.334Z,0.17
2023-03-12T05:24:36.356Z,0.19
2023-03-12T05:25:09.415Z,0.21
2023-03-12T05:25:40.364Z,0.23
2023-03-12T05:26:13.927Z,0.24
2023-03-12T05:26:44.187Z,0.27
2023-03-12T05:27:17.126Z,0.29
2023-03-12T05:27:48.269Z,0.32
2023-03-12T05:28:21.200Z,0.35
2023-03-12T05:28:52.708Z,0.38
2023-03-12T05:29:25.004Z,0.41
2023-03-12T05:29:56.121Z,0.44
2023-03-12T05:30:29.197Z,0.48
2023-03-12T05:31:00.048Z,0.52
2023-03-12T05:31:33.197Z,0.57
2023-03-12T05:32:04.085Z,0.62
2023-03-12T05:32:37.037Z,0.67
2023-03-12T05:33:08.017Z,0.73
2023-03-12T05:33:41.165Z,0.80
2023-03-12T05:34:12.091Z,0.87
2023-03-12T05:34:44.944Z,0.95
2023-03-12T05:35:15.911Z,1.03
2023-03-12T05:35:49.706Z,1.10
2023-03-12T05:36:19.910Z,1.18
2023-03-12T05:36:52.813Z,1.26
2023-03-12T05:37:23.797Z,1.35
2023-03-12T05:37:56.801Z,1.44
2023-03-12T05:38:27.796Z,1.52
2023-03-12T05:39:00.846Z,1.59
2023-03-12T05:39:31.706Z,1.67
2023-03-12T05:40:04.621Z,1.73
2023-03-12T05:40:36.005Z,1.78
2023-03-12T05:41:08.631Z,1.83
2023-03-12T05:41:39.595Z,1.89
2023-03-12T05:42:12.505Z,1.97
2023-03-12T05:42:43.622Z,2.07
2023-03-12T05:43:16.648Z,2.18
2023-03-12T05:43:47.508Z,2.30
2023-03-12T05:44:21.304Z,2.43
2023-03-12T05:44:51.706Z,2.57
2023-03-12T05:45:24.621Z,2.72
2023-03-12T05:45:55.732Z,2.87
2023-03-12T05:46:29.034Z,3.01
2023-03-12T05:46:59.468Z,3.17
2023-03-12T05:47:32.396Z,3.31
2023-03-12T05:48:03.291Z,3.45
2023-03-12T05:48:36.304Z,3.57
2023-03-12T05:49:07.343Z,3.68
2023-03-12T05:49:40.641Z,3.77
2023-03-12T05:50:11.403Z,3.87
2023-03-12T05:50:44.142Z,3.96
2023-03-12T05:51:15.267Z,4.06
2023-03-12T05:51:48.254Z,4.17
2023-03-12T05:52:19.634Z,4.29
2023-03-12T05:52:52.272Z,4.41
2023-03-12T05:53:23.138Z,4.55
2023-03-12T05:53:56.171Z,4.70
2023-03-12T05:54:27.193Z,4.86
2023-03-12T05:54:59.926Z,5.03
2023-03-12T05:55:31.100Z,5.19
2023-03-12T05:56:04.072Z,5.33
2023-03-12T05:56:34.921Z,5.45
2023-03-12T05:57:07.886Z,5.56
2023-03-12T05:57:39.011Z,5.65
2023-03-12T05:58:12.034Z,5.74
2023-03-12T05:58:42.826Z,5.82
2023-03-12T05:59:15.814Z,5.90
2023-03-12T05:59:46.924Z,6.01
2023-03-12T06:00:20.041Z,6.14
2023-03-12T06:00:50.855Z,6.31
2023-03-12T06:01:23.694Z,6.50
2023-03-12T06:01:54.918Z,6.74
2023-03-12T06:02:28.740Z,7.02
2023-03-12T06:02:58.684Z,7.33
2023-03-12T06:03:31.682Z,7.68
2023-03-12T06:04:02.722Z,8.04
2023-03-12T06:04:36.682Z,8.44
2023-03-12T06:05:06.766Z,8.86
2023-03-12T06:05:39.500Z,9.29
2023-03-12T06:06:10.816Z,9.72
2023-03-12T06:06:44.429Z,10.17
2023-03-12T06:07:14.494Z,10.60
2023-03-12T06:07:47.435Z,11.03
2023-03-12T06:08:18.513Z,11.42
2023-03-12T06:08:51.703Z,11.77
2023-03-12T06:09:22.590Z,12.05
2023-03-12T06:09:55.282Z,12.29
2023-03-12T06:10:26.412Z,12.45
2023-03-12T06:10:59.343Z,12.57
2023-03-12T06:11:30.325Z,12.64
2023-03-12T06:12:03.199Z,12.72
2023-03-12T06:12:34.333Z,12.81
2023-03-12T06:13:07.373Z,12.91
2023-03-12T06:13:38.402Z,13.01
2023-03-12T06:14:11.265Z,13.11
2023-03-12T06:14:42.309Z,13.21
2023-03-12T06:15:15.330Z,13.28
2023-03-12T06:15:46.328Z,13.33
2023-03-12T06:16:19.057Z,13.35
2023-03-12T06:16:50.250Z,13.33
2023-03-12T06:17:23.103Z,13.30
2023-03-12T06:17:54.008Z,13.28
2023-03-12T06:18:27.099Z,13.28
2023-03-12T06:18:58.061Z,13.32
2023-03-12T06:19:31.115Z,13.43
2023-03-12T06:20:02.127Z,13.61
2023-03-12T06:20:34.852Z,13.87
2023-03-12T06:21:06.000Z,14.20
2023-03-12T06:21:38.901Z,14.56
2023-03-12T06:22:10.036Z,14.95
2023-03-12T06:22:42.776Z,15.34
2023-03-12T06:23:13.931Z,15.72
2023-03-12T06:23:46.819Z,16.09
2023-03-12T06:24:17.912Z,16.49
2023-03-12T06:24:51.755Z,16.92
2023-03-12T06:25:21.900Z,17.39
2023-03-12T06:25:57.688Z,17.89
2023-03-12T06:26:25.841Z,18.40
2023-03-12T06:26:58.553Z,18.88
2023-03-12T06:27:29.699Z,19.34
2023-03-12T06:28:02.770Z,19.79
2023-03-12T06:28:33.762Z,20.21
2023-03-12T06:29:06.501Z,20.62
2023-03-12T06:29:37.597Z,20.81
2023-03-12T06:30:10.891Z,21.39
2023-03-12T06:30:41.672Z,21.77
2023-03-12T06:31:14.507Z,22.15
2023-03-12T06:31:45.646Z,22.54
2023-03-12T06:32:18.586Z,22.96
2023-03-12T06:32:49.649Z,23.39
2023-03-12T06:33:22.309Z,23.81
2023-03-12T06:33:53.434Z,24.30
2023-03-12T06:34:26.659Z,24.85
2023-03-12T06:34:57.482Z,25.53
2023-03-12T06:35:30.418Z,26.35
2023-03-12T06:36:02.112Z,27.28
2023-03-12T06:36:34.865Z,28.30
2023-03-12T06:37:05.378Z,29.31
2023-03-12T06:37:38.214Z,30.34
2023-03-12T06:38:09.268Z,31.36
2023-03-12T06:38:42.480Z,32.34
2023-03-12T06:39:13.339Z,33.35
2023-03-12T06:39:46.080Z,34.33
2023-03-12T06:40:17.161Z,35.35
2023-03-12T06:40:49.975Z,36.39
2023-03-12T06:41:21.230Z,37.43
2023-03-12T06:41:53.980Z,38.49
2023-03-12T06:42:25.072Z,39.68
2023-03-12T06:42:57.972Z,40.96
2023-03-12T06:43:29.117Z,42.30
2023-03-12T06:44:01.946Z,43.74
2023-03-12T06:44:32.989Z,45.33
2023-03-12T06:45:06.221Z,46.75
2023-03-12T06:45:37.107Z,47.94
2023-03-12T06:46:09.789Z,49.18
2023-03-12T06:46:42.692Z,50.32
2023-03-12T06:47:16.444Z,50.80
2023-03-12T06:47:44.982Z,51.37
2023-03-12T06:48:17.774Z,51.68
2023-03-12T06:48:48.819Z,51.36
2023-03-12T06:49:22.099Z,51.57
2023-03-12T06:49:52.871Z,51.31
2023-03-12T06:50:25.586Z,50.67
2023-03-12T06:50:56.779Z,49.88
2023-03-12T06:51:29.623Z,49.07
2023-03-12T06:52:00.988Z,48.36
2023-03-12T06:52:33.516Z,48.00
2023-03-12T06:53:04.674Z,47.91
2023-03-12T06:53:39.895Z,48.67
2023-03-12T06:54:08.484Z,49.14
2023-03-12T06:54:41.600Z,50.30
2023-03-12T06:55:12.624Z,51.68
2023-03-12T06:55:45.520Z,53.06
2023-03-12T06:56:16.410Z,54.66
2023-03-12T06:56:49.339Z,56.13
2023-03-12T06:57:20.574Z,57.37
2023-03-12T06:57:53.574Z,58.27
2023-03-12T06:58:24.336Z,59.44
2023-03-12T06:58:57.367Z,60.02
2023-03-12T06:59:28.377Z,61.42
2023-03-12T07:00:01.621Z,61.90
2023-03-12T07:00:32.309Z,62.78
2023-03-12T07:01:05.183Z,62.90
2023-03-12T07:01:36.298Z,62.52
2023-03-12T07:02:09.368Z,62.83
2023-03-12T07:02:40.191Z,62.45
2023-03-12T07:03:13.222Z,61.83